Time,TemperatureF,DewpointF,PressureIn,WindDirection,WindDirectionDegrees,WindSpeedMPH,WindSpeedGustMPH,Humidity,HourlyPrecipIn,Conditions,Clouds,dailyrainin,SoftwareType,DateUTC
2013-03-30 00:02:00,59.1,34.8,30.09,ESE,115,0.0,6.0,40,0.00,,SKC,0.00,VWS V13.01,2013-03-30 05:02:00,
2013-03-30 00:07:00,58.9,35.3,30.10,SE,145,7.0,8.0,41,0.00,,SKC,0.00,VWS V13.01,2013-03-30 05:07:00,
2013-03-30 00:12:00,58.7,35.1,30.10,SSE,156,5.0,11.0,41,0.00,,SKC,0.00,VWS V13.01,2013-03-30 05:12:00,
2013-03-30 00:17:00,58.6,35.0,30.10,SE,138,0.0,11.0,41,0.00,,SKC,0.00,VWS V13.01,2013-03-30 05:17:00,
2013-03-30 00:22:00,58.5,34.9,30.10,ESE,116,0.0,8.0,41,0.00,,SKC,0.00,VWS V13.01,2013-03-30 05:22:00,
2013-03-30 00:27:00,58.3,34.7,30.09,ESE,118,5.0,13.0,41,0.00,,SKC,0.00,VWS V13.01,2013-03-30 05:27:00,
2013-03-30 00:32:00,58.2,35.2,30.09,SE,135,5.0,5.0,42,0.00,,SKC,0.00,VWS V13.01,2013-03-30 05:32:00,
2013-03-30 00:38:00,58.1,35.2,30.10,SE,139,1.0,5.0,42,0.00,,SKC,0.00,VWS V13.01,2013-03-30 05:38:00,
2013-03-30 00:43:00,57.9,35.0,30.10,SSE,156,1.0,7.0,42,0.00,,SKC,0.00,VWS V13.01,2013-03-30 05:43:00,
2013-03-30 00:47:00,57.8,35.5,30.10,East,97,0.0,6.0,43,0.00,,SKC,0.00,VWS V13.01,2013-03-30 05:47:00,
2013-03-30 00:52:00,57.7,36.0,30.10,SE,124,0.0,2.0,44,0.00,,SKC,0.00,VWS V13.01,2013-03-30 05:52:00,
2013-03-30 00:58:00,57.5,36.3,30.10,SE,129,2.0,4.0,45,0.00,,SKC,0.00,VWS V13.01,2013-03-30 05:58:00,
2013-03-30 01:03:00,57.3,37.3,30.10,SSE,147,1.0,9.0,47,0.00,,SKC,0.00,VWS V13.01,2013-03-30 06:03:00,
2013-03-30 01:08:00,57.0,38.6,30.10,South,169,0.0,4.0,50,0.00,,SKC,0.00,VWS V13.01,2013-03-30 06:08:00,
2013-03-30 01:13:00,56.6,39.2,30.11,SSE,166,8.0,8.0,52,0.00,,SKC,0.00,VWS V13.01,2013-03-30 06:13:00,
2013-03-30 01:18:00,56.0,39.1,30.11,East,95,4.0,9.0,53,0.00,,SKC,0.00,VWS V13.01,2013-03-30 06:18:00,
2013-03-30 01:23:00,55.4,39.5,30.10,South,178,0.0,9.0,55,0.00,,SKC,0.00,VWS V13.01,2013-03-30 06:23:00,
2013-03-30 01:29:00,54.9,40.4,30.10,SSE,158,2.0,4.0,58,0.00,,SKC,0.00,VWS V13.01,2013-03-30 06:29:00,
2013-03-30 01:34:00,54.4,39.5,30.10,SSE,153,2.0,8.0,57,0.00,,SKC,0.00,VWS V13.01,2013-03-30 06:34:00,
2013-03-30 01:39:00,54.2,39.8,30.10,SSE,153,0.0,5.0,58,0.00,,SKC,0.00,VWS V13.01,2013-03-30 06:39:00,
2013-03-30 01:43:00,54.0,40.0,30.10,SSE,161,2.0,7.0,59,0.00,,SKC,0.00,VWS V13.01,2013-03-30 06:43:00,
2013-03-30 01:49:00,53.9,39.5,30.10,South,182,4.0,4.0,58,0.00,,SKC,0.00,VWS V13.01,2013-03-30 06:49:00,
2013-03-30 01:55:00,53.5,40.4,30.10,SW,218,9.0,9.0,61,0.00,,SKC,0.00,VWS V13.01,2013-03-30 06:55:00,
2013-03-30 02:00:00,53.1,40.8,30.10,South,183,0.0,9.0,63,0.01,,SKC,0.01,VWS V13.01,2013-03-30 07:00:00,
2013-03-30 02:05:00,52.3,41.3,30.10,South,173,2.0,7.0,66,0.01,,SKC,0.01,VWS V13.01,2013-03-30 07:05:00,
2013-03-30 02:10:00,51.5,41.7,30.09,South,179,2.0,4.0,69,0.02,,SKC,0.02,VWS V13.01,2013-03-30 07:10:00,
2013-03-30 02:15:00,50.9,42.2,30.08,SSE,162,5.0,5.0,72,0.03,,SKC,0.03,VWS V13.01,2013-03-30 07:15:00,
2013-03-30 02:20:00,50.4,42.4,30.08,South,170,1.0,8.0,74,0.04,,SKC,0.04,VWS V13.01,2013-03-30 07:20:00,
2013-03-30 02:25:00,49.7,42.8,30.08,South,170,0.0,4.0,77,0.05,,SKC,0.05,VWS V13.01,2013-03-30 07:25:00,
2013-03-30 02:30:00,49.5,42.9,30.08,South,170,0.0,0.0,78,0.06,,SKC,0.06,VWS V13.01,2013-03-30 07:30:00,
2013-03-30 02:36:00,49.3,43.4,30.08,South,182,1.0,8.0,80,0.07,,SKC,0.07,VWS V13.01,2013-03-30 07:36:00,
2013-03-30 02:41:00,49.2,43.6,30.07,SE,143,1.0,2.0,81,0.07,,SKC,0.07,VWS V13.01,2013-03-30 07:41:00,
2013-03-30 02:46:00,49.1,43.8,30.06,ESE,112,1.0,7.0,82,0.08,,SKC,0.08,VWS V13.01,2013-03-30 07:46:00,
2013-03-30 02:51:00,49.0,44.1,30.05,ESE,116,11.0,11.0,83,0.09,,SKC,0.09,VWS V13.01,2013-03-30 07:51:00,
2013-03-30 02:56:00,48.9,44.3,30.03,SE,137,7.0,9.0,84,0.09,,SKC,0.09,VWS V13.01,2013-03-30 07:56:00,
2013-03-30 03:01:00,48.9,44.6,30.02,SE,140,1.0,7.0,85,0.09,,SKC,0.10,VWS V13.01,2013-03-30 08:01:00,
2013-03-30 03:06:00,49.1,45.1,30.02,SSE,152,6.0,7.0,86,0.10,,SKC,0.11,VWS V13.01,2013-03-30 08:06:00,
2013-03-30 03:11:00,49.4,45.4,30.02,East,88,3.0,8.0,86,0.10,,SKC,0.12,VWS V13.01,2013-03-30 08:11:00,
2013-03-30 03:16:00,49.5,45.5,30.02,ESE,110,4.0,7.0,86,0.09,,SKC,0.12,VWS V13.01,2013-03-30 08:16:00,
2013-03-30 03:21:00,49.7,45.7,30.01,SE,129,6.0,7.0,86,0.09,,SKC,0.13,VWS V13.01,2013-03-30 08:21:00,
2013-03-30 03:26:00,49.9,46.2,30.01,ESE,121,0.0,0.0,87,0.08,,SKC,0.13,VWS V13.01,2013-03-30 08:26:00,
2013-03-30 03:31:00,50.3,46.6,30.01,East,79,3.0,11.0,87,0.07,,SKC,0.13,VWS V13.01,2013-03-30 08:31:00,
2013-03-30 03:36:00,50.6,46.9,30.00,ESE,110,2.0,9.0,87,0.07,,SKC,0.13,VWS V13.01,2013-03-30 08:36:00,
2013-03-30 03:41:00,50.9,47.2,30.00,East,101,5.0,6.0,87,0.06,,SKC,0.13,VWS V13.01,2013-03-30 08:41:00,
2013-03-30 03:46:00,50.9,46.9,30.00,SE,139,2.0,6.0,86,0.05,,SKC,0.13,VWS V13.01,2013-03-30 08:46:00,
2013-03-30 03:52:00,50.9,46.9,30.00,SE,146,0.0,6.0,86,0.04,,SKC,0.13,VWS V13.01,2013-03-30 08:52:00,
2013-03-30 03:57:00,51.0,47.0,30.00,South,174,2.0,7.0,86,0.04,,SKC,0.13,VWS V13.01,2013-03-30 08:57:00,
2013-03-30 04:02:00,51.1,47.4,29.99,SE,125,5.0,6.0,87,0.03,,SKC,0.13,VWS V13.01,2013-03-30 09:02:00,
2013-03-30 04:08:00,51.1,47.1,29.99,SE,146,7.0,8.0,86,0.02,,SKC,0.13,VWS V13.01,2013-03-30 09:08:00,
2013-03-30 04:13:00,51.1,46.8,29.99,SE,143,8.0,16.0,85,0.01,,SKC,0.13,VWS V13.01,2013-03-30 09:13:00,
2013-03-30 04:18:00,51.0,46.7,29.99,SSE,168,4.0,12.0,85,0.01,,SKC,0.13,VWS V13.01,2013-03-30 09:18:00,
2013-03-30 04:23:00,50.8,46.2,29.99,SE,139,6.0,11.0,84,0.00,,SKC,0.13,VWS V13.01,2013-03-30 09:23:00,
2013-03-30 04:28:00,50.7,46.0,29.99,SE,124,5.0,11.0,84,0.00,,SKC,0.13,VWS V13.01,2013-03-30 09:28:00,
2013-03-30 04:33:00,50.5,45.5,29.98,SSE,157,2.0,8.0,83,0.00,,SKC,0.13,VWS V13.01,2013-03-30 09:33:00,
2013-03-30 04:38:00,50.3,45.3,29.98,SE,131,1.0,5.0,83,0.00,,SKC,0.13,VWS V13.01,2013-03-30 09:38:00,
2013-03-30 04:43:00,50.1,45.5,29.98,SE,145,1.0,9.0,84,0.00,,SKC,0.13,VWS V13.01,2013-03-30 09:43:00,
2013-03-30 04:48:00,49.9,45.3,29.98,ESE,106,0.0,0.0,84,0.00,,SKC,0.13,VWS V13.01,2013-03-30 09:48:00,
2013-03-30 04:53:00,49.8,45.2,29.98,ESE,106,0.0,0.0,84,0.00,,SKC,0.13,VWS V13.01,2013-03-30 09:53:00,
2013-03-30 04:58:00,49.7,45.1,29.99,ESE,106,0.0,0.0,84,0.00,,SKC,0.13,VWS V13.01,2013-03-30 09:58:00,
2013-03-30 05:04:00,49.6,45.3,30.01,NE,38,0.0,1.0,85,0.00,,SKC,0.13,VWS V13.01,2013-03-30 10:04:00,
2013-03-30 05:09:00,49.5,45.2,30.02,North,358,5.0,8.0,85,0.00,,SKC,0.13,VWS V13.01,2013-03-30 10:09:00,
2013-03-30 05:14:00,49.6,45.6,30.02,NNE,19,5.0,6.0,86,0.00,,SKC,0.13,VWS V13.01,2013-03-30 10:14:00,
2013-03-30 05:19:00,49.6,45.6,30.02,North,8,0.0,0.0,86,0.00,,SKC,0.13,VWS V13.01,2013-03-30 10:19:00,
2013-03-30 05:24:00,49.6,45.9,30.03,North,8,0.0,0.0,87,0.01,,SKC,0.14,VWS V13.01,2013-03-30 10:24:00,
2013-03-30 05:29:00,49.6,45.9,30.02,North,8,0.0,0.0,87,0.02,,SKC,0.15,VWS V13.01,2013-03-30 10:29:00,
2013-03-30 05:34:00,49.5,45.8,30.02,North,8,0.0,0.0,87,0.04,,SKC,0.17,VWS V13.01,2013-03-30 10:34:00,
2013-03-30 05:39:00,49.3,45.9,30.01,SSE,168,1.0,4.0,88,0.05,,SKC,0.18,VWS V13.01,2013-03-30 10:39:00,
2013-03-30 05:44:00,49.2,46.1,30.00,South,169,1.0,4.0,89,0.06,,SKC,0.19,VWS V13.01,2013-03-30 10:44:00,
2013-03-30 05:49:00,49.2,46.1,30.00,SSE,164,1.0,5.0,89,0.07,,SKC,0.20,VWS V13.01,2013-03-30 10:49:00,
2013-03-30 05:54:00,49.2,46.1,30.00,SSE,153,0.0,0.0,89,0.08,,SKC,0.21,VWS V13.01,2013-03-30 10:54:00,
2013-03-30 05:59:00,49.3,46.5,30.01,North,3,0.0,0.0,90,0.10,,SKC,0.23,VWS V13.01,2013-03-30 10:59:00,
2013-03-30 06:05:00,49.3,46.5,30.02,NNW,336,2.0,5.0,90,0.11,,SKC,0.24,VWS V13.01,2013-03-30 11:05:00,
2013-03-30 06:10:00,49.4,46.6,30.00,NNW,336,0.0,0.0,90,0.12,,SKC,0.25,VWS V13.01,2013-03-30 11:10:00,
2013-03-30 06:15:00,49.4,46.9,29.99,SE,130,0.0,0.0,91,0.13,,SKC,0.26,VWS V13.01,2013-03-30 11:15:00,
2013-03-30 06:20:00,49.4,46.9,29.98,SSE,160,1.0,1.0,91,0.14,,SKC,0.27,VWS V13.01,2013-03-30 11:20:00,
2013-03-30 06:25:00,49.4,46.9,29.99,SSW,202,0.0,0.0,91,0.14,,SKC,0.28,VWS V13.01,2013-03-30 11:25:00,
2013-03-30 06:30:00,49.4,46.9,29.99,SSW,203,0.0,0.0,91,0.14,,SKC,0.29,VWS V13.01,2013-03-30 11:30:00,
2013-03-30 06:35:00,49.4,46.9,29.99,SSW,203,0.0,0.0,91,0.13,,SKC,0.30,VWS V13.01,2013-03-30 11:35:00,
2013-03-30 06:40:00,49.3,46.8,29.99,SSE,148,5.0,5.0,91,0.13,,SKC,0.31,VWS V13.01,2013-03-30 11:40:00,
2013-03-30 06:45:00,49.3,46.8,29.98,SE,138,0.0,7.0,91,0.12,,SKC,0.31,VWS V13.01,2013-03-30 11:45:00,
2013-03-30 06:50:00,49.2,46.7,29.98,SE,133,4.0,4.0,91,0.11,,SKC,0.31,VWS V13.01,2013-03-30 11:50:00,
2013-03-30 06:55:00,49.2,46.7,29.98,SE,124,0.0,0.0,91,0.10,,SKC,0.31,VWS V13.01,2013-03-30 11:55:00,
2013-03-30 07:00:00,49.2,46.7,29.98,SE,124,0.0,0.0,91,0.08,,SKC,0.31,VWS V13.01,2013-03-30 12:00:00,
2013-03-30 07:05:00,49.2,46.7,29.98,SE,135,4.0,4.0,91,0.07,,SKC,0.31,VWS V13.01,2013-03-30 12:05:00,
2013-03-30 07:10:00,49.2,47.0,29.98,SSE,164,0.0,4.0,92,0.06,,SKC,0.31,VWS V13.01,2013-03-30 12:10:00,
2013-03-30 07:15:00,49.3,47.1,29.98,SSE,156,0.0,0.0,92,0.05,,SKC,0.31,VWS V13.01,2013-03-30 12:15:00,
2013-03-30 07:20:00,49.3,47.1,29.98,SSE,166,0.0,5.0,92,0.04,,SKC,0.31,VWS V13.01,2013-03-30 12:20:00,
2013-03-30 07:25:00,49.2,47.0,29.98,South,174,1.0,4.0,92,0.03,,SKC,0.31,VWS V13.01,2013-03-30 12:25:00,
2013-03-30 07:30:00,49.2,47.0,29.98,South,174,0.0,0.0,92,0.02,,SKC,0.31,VWS V13.01,2013-03-30 12:30:00,
2013-03-30 07:35:00,49.2,47.0,29.98,South,178,0.0,0.0,92,0.01,,SKC,0.31,VWS V13.01,2013-03-30 12:35:00,
2013-03-30 07:40:00,49.2,47.0,29.99,South,183,2.0,4.0,92,0.00,,SKC,0.31,VWS V13.01,2013-03-30 12:40:00,
2013-03-30 07:45:00,49.3,47.1,29.99,SSW,193,3.0,6.0,92,0.00,,SKC,0.31,VWS V13.01,2013-03-30 12:45:00,
2013-03-30 07:50:00,49.3,47.1,29.99,SSW,201,2.0,7.0,92,0.00,,SKC,0.31,VWS V13.01,2013-03-30 12:50:00,
2013-03-30 07:55:00,49.3,47.1,29.99,SW,217,3.0,6.0,92,0.00,,SKC,0.31,VWS V13.01,2013-03-30 12:55:00,
2013-03-30 08:00:00,49.3,46.8,29.99,SW,217,0.0,0.0,91,0.00,,SKC,0.31,VWS V13.01,2013-03-30 13:00:00,
2013-03-30 08:05:00,49.3,47.1,29.99,SW,216,0.0,0.0,92,0.00,,SKC,0.31,VWS V13.01,2013-03-30 13:05:00,
2013-03-30 08:10:00,49.4,47.2,29.99,SW,216,2.0,3.0,92,0.00,,SKC,0.31,VWS V13.01,2013-03-30 13:10:00,
2013-03-30 08:15:00,49.6,47.4,29.99,SW,217,2.0,5.0,92,0.00,,SKC,0.31,VWS V13.01,2013-03-30 13:15:00,
2013-03-30 08:20:00,49.7,47.5,29.99,SW,216,0.0,0.0,92,0.00,,SKC,0.31,VWS V13.01,2013-03-30 13:20:00,
2013-03-30 08:25:00,49.8,47.6,29.99,SW,217,5.0,5.0,92,0.00,,SKC,0.31,VWS V13.01,2013-03-30 13:25:00,
2013-03-30 08:31:00,49.9,47.4,29.99,SW,215,0.0,0.0,91,0.00,,SKC,0.31,VWS V13.01,2013-03-30 13:31:00,
2013-03-30 08:36:00,49.9,47.4,29.99,SW,214,4.0,4.0,91,0.00,,SKC,0.31,VWS V13.01,2013-03-30 13:36:00,
2013-03-30 08:41:00,50.0,47.5,29.99,SW,215,0.0,0.0,91,0.00,,SKC,0.31,VWS V13.01,2013-03-30 13:41:00,
2013-03-30 08:46:00,50.0,47.5,29.99,SW,217,2.0,2.0,91,0.00,,SKC,0.31,VWS V13.01,2013-03-30 13:46:00,
2013-03-30 08:51:00,50.1,47.6,29.99,SW,217,0.0,0.0,91,0.00,,SKC,0.31,VWS V13.01,2013-03-30 13:51:00,
2013-03-30 08:56:00,50.2,47.7,29.99,SW,218,3.0,3.0,91,0.00,,SKC,0.31,VWS V13.01,2013-03-30 13:56:00,
2013-03-30 09:01:00,50.4,47.9,29.99,SW,220,3.0,6.0,91,0.00,,SKC,0.31,VWS V13.01,2013-03-30 14:01:00,
2013-03-30 09:06:00,50.7,48.2,29.99,SSW,209,3.0,3.0,91,0.00,,SKC,0.31,VWS V13.01,2013-03-30 14:06:00,
2013-03-30 09:12:00,51.0,48.5,29.99,SW,226,0.0,0.0,91,0.00,,SKC,0.31,VWS V13.01,2013-03-30 14:12:00,
2013-03-30 09:17:00,51.3,48.5,29.98,SW,226,0.0,0.0,90,0.00,,SKC,0.31,VWS V13.01,2013-03-30 14:17:00,
2013-03-30 09:22:00,51.6,48.8,29.99,SSW,210,2.0,6.0,90,0.00,,SKC,0.31,VWS V13.01,2013-03-30 14:22:00,
2013-03-30 09:28:00,51.9,48.8,29.98,SW,214,0.0,3.0,89,0.00,,SKC,0.31,VWS V13.01,2013-03-30 14:28:00,
2013-03-30 09:33:00,52.2,48.8,29.98,SSW,203,2.0,3.0,88,0.00,,SKC,0.31,VWS V13.01,2013-03-30 14:33:00,
2013-03-30 09:38:00,52.3,48.9,29.98,SSW,210,3.0,5.0,88,0.00,,SKC,0.31,VWS V13.01,2013-03-30 14:38:00,
2013-03-30 09:43:00,52.7,49.2,29.99,SSW,211,0.0,0.0,88,0.00,,SKC,0.31,VWS V13.01,2013-03-30 14:43:00,
2013-03-30 09:49:00,53.6,50.1,29.99,SSW,206,0.0,0.0,88,0.00,,SKC,0.31,VWS V13.01,2013-03-30 14:49:00,
2013-03-30 09:54:00,54.3,50.2,29.99,SSW,205,0.0,0.0,86,0.00,,SKC,0.31,VWS V13.01,2013-03-30 14:54:00,
2013-03-30 09:59:00,54.5,50.1,29.99,WSW,251,4.0,4.0,85,0.00,,SKC,0.31,VWS V13.01,2013-03-30 14:59:00,
2013-03-30 10:04:00,54.3,49.9,29.99,WSW,252,0.0,3.0,85,0.00,,SKC,0.31,VWS V13.01,2013-03-30 15:04:00,
2013-03-30 10:09:00,54.2,49.8,29.99,WSW,242,2.0,5.0,85,0.00,,SKC,0.31,VWS V13.01,2013-03-30 15:09:00,
2013-03-30 10:14:00,54.7,50.6,29.98,WSW,242,0.0,0.0,86,0.00,,SKC,0.31,VWS V13.01,2013-03-30 15:14:00,
2013-03-30 10:20:00,55.3,50.6,29.98,SW,231,0.0,0.0,84,0.00,,SKC,0.31,VWS V13.01,2013-03-30 15:20:00,
2013-03-30 10:25:00,55.9,51.1,29.98,SW,231,0.0,0.0,84,0.00,,SKC,0.31,VWS V13.01,2013-03-30 15:25:00,
2013-03-30 10:30:00,56.0,51.2,29.98,SW,231,0.0,0.0,84,0.00,,SKC,0.31,VWS V13.01,2013-03-30 15:30:00,
2013-03-30 10:35:00,56.5,51.4,29.98,WSW,241,0.0,0.0,83,0.00,,SKC,0.31,VWS V13.01,2013-03-30 15:35:00,
2013-03-30 10:40:00,56.6,51.2,29.98,WSW,247,4.0,6.0,82,0.00,,SKC,0.31,VWS V13.01,2013-03-30 15:40:00,
2013-03-30 10:45:00,56.5,51.1,29.98,West,266,2.0,2.0,82,0.00,,SKC,0.31,VWS V13.01,2013-03-30 15:45:00,
2013-03-30 10:50:00,57.1,52.0,29.98,WSW,243,4.0,6.0,83,0.00,,SKC,0.31,VWS V13.01,2013-03-30 15:50:00,
2013-03-30 10:56:00,57.9,51.8,29.98,West,262,3.0,7.0,80,0.00,,SKC,0.31,VWS V13.01,2013-03-30 15:56:00,
2013-03-30 11:02:00,58.0,52.2,29.98,West,262,0.0,0.0,81,0.00,,SKC,0.31,VWS V13.01,2013-03-30 16:02:00,
2013-03-30 11:07:00,58.8,52.7,29.97,West,266,0.0,0.0,80,0.00,,SKC,0.31,VWS V13.01,2013-03-30 16:07:00,
2013-03-30 11:12:00,59.8,52.9,29.97,West,262,6.0,6.0,78,0.00,,SKC,0.31,VWS V13.01,2013-03-30 16:12:00,
2013-03-30 11:17:00,60.3,53.4,29.97,West,274,9.0,9.0,78,0.00,,SKC,0.31,VWS V13.01,2013-03-30 16:17:00,
2013-03-30 11:22:00,60.8,52.8,29.97,NW,310,8.0,8.0,75,0.00,,SKC,0.31,VWS V13.01,2013-03-30 16:22:00,
2013-03-30 11:27:00,61.2,52.5,29.96,NW,307,6.0,9.0,73,0.00,,SKC,0.31,VWS V13.01,2013-03-30 16:27:00,
2013-03-30 11:32:00,61.4,52.7,29.97,NW,307,7.0,14.0,73,0.00,,SKC,0.31,VWS V13.01,2013-03-30 16:32:00,
2013-03-30 11:38:00,61.5,52.8,29.96,NW,307,7.0,11.0,73,0.00,,SKC,0.31,VWS V13.01,2013-03-30 16:38:00,
2013-03-30 11:43:00,61.8,52.7,29.96,WSW,258,6.0,15.0,72,0.00,,SKC,0.31,VWS V13.01,2013-03-30 16:43:00,
2013-03-30 11:48:00,62.0,52.9,29.96,WNW,284,12.0,12.0,72,0.00,,SKC,0.31,VWS V13.01,2013-03-30 16:48:00,
2013-03-30 11:53:00,61.9,52.8,29.97,WNW,299,9.0,15.0,72,0.00,,SKC,0.31,VWS V13.01,2013-03-30 16:53:00,
2013-03-30 11:58:00,62.4,53.3,29.96,WNW,293,14.0,14.0,72,0.00,,SKC,0.31,VWS V13.01,2013-03-30 16:58:00,
2013-03-30 12:03:00,62.5,53.4,29.96,WNW,282,6.0,15.0,72,0.00,,SKC,0.31,VWS V13.01,2013-03-30 17:03:00,
2013-03-30 12:09:00,63.0,53.5,29.96,WNW,301,14.0,14.0,71,0.00,,SKC,0.31,VWS V13.01,2013-03-30 17:09:00,
2013-03-30 12:14:00,63.1,53.2,29.96,NW,310,9.0,14.0,70,0.00,,SKC,0.31,VWS V13.01,2013-03-30 17:14:00,
2013-03-30 12:19:00,63.3,53.4,29.96,NW,316,2.0,12.0,70,0.00,,SKC,0.31,VWS V13.01,2013-03-30 17:19:00,
2013-03-30 12:25:00,64.7,53.9,29.96,West,268,0.0,6.0,68,0.00,,SKC,0.31,VWS V13.01,2013-03-30 17:25:00,
2013-03-30 12:30:00,65.6,53.5,29.96,WNW,301,7.0,9.0,65,0.00,,SKC,0.31,VWS V13.01,2013-03-30 17:30:00,
2013-03-30 12:35:00,65.7,54.0,29.96,NNW,342,8.0,15.0,66,0.00,,SKC,0.31,VWS V13.01,2013-03-30 17:35:00,
2013-03-30 12:40:00,65.6,53.5,29.96,NW,305,9.0,11.0,65,0.00,,SKC,0.31,VWS V13.01,2013-03-30 17:40:00,
2013-03-30 12:45:00,65.7,53.6,29.96,WNW,293,7.0,11.0,65,0.00,,SKC,0.31,VWS V13.01,2013-03-30 17:45:00,
2013-03-30 12:50:00,65.0,53.4,29.96,WNW,287,9.0,13.0,66,0.00,,SKC,0.31,VWS V13.01,2013-03-30 17:50:00,
2013-03-30 12:56:00,64.8,52.3,29.95,WNW,303,11.0,14.0,64,0.00,,SKC,0.31,VWS V13.01,2013-03-30 17:56:00,
2013-03-30 13:02:00,64.9,53.3,29.95,WNW,297,1.0,9.0,66,0.00,,SKC,0.31,VWS V13.01,2013-03-30 18:02:00,
2013-03-30 13:07:00,65.8,53.3,29.95,WNW,301,0.0,5.0,64,0.00,,SKC,0.31,VWS V13.01,2013-03-30 18:07:00,
2013-03-30 13:12:00,66.2,53.2,29.95,WNW,284,0.0,1.0,63,0.00,,SKC,0.31,VWS V13.01,2013-03-30 18:12:00,
2013-03-30 13:17:00,66.7,53.3,29.95,NW,307,0.0,1.0,62,0.00,,SKC,0.31,VWS V13.01,2013-03-30 18:17:00,
2013-03-30 13:22:00,67.9,53.1,29.95,North,358,0.0,1.0,59,0.00,,SKC,0.31,VWS V13.01,2013-03-30 18:22:00,
2013-03-30 13:27:00,68.2,51.9,29.95,NW,321,7.0,13.0,56,0.00,,SKC,0.31,VWS V13.01,2013-03-30 18:27:00,
2013-03-30 13:32:00,67.6,51.8,29.95,WNW,298,1.0,2.0,57,0.00,,SKC,0.31,VWS V13.01,2013-03-30 18:32:00,
2013-03-30 13:38:00,67.5,52.2,29.94,NW,312,0.0,13.0,58,0.00,,SKC,0.31,VWS V13.01,2013-03-30 18:38:00,
2013-03-30 13:43:00,67.1,51.4,29.94,WNW,303,1.0,4.0,57,0.00,,SKC,0.31,VWS V13.01,2013-03-30 18:43:00,
2013-03-30 13:48:00,67.1,51.8,29.94,NNW,332,0.0,2.0,58,0.00,,SKC,0.31,VWS V13.01,2013-03-30 18:48:00,
2013-03-30 13:53:00,67.8,50.6,29.94,NW,314,4.0,4.0,54,0.00,,SKC,0.31,VWS V13.01,2013-03-30 18:53:00,
2013-03-30 13:58:00,68.6,52.3,29.94,NW,314,0.0,1.0,56,0.00,,SKC,0.31,VWS V13.01,2013-03-30 18:58:00,
2013-03-30 14:03:00,69.6,51.7,29.94,WNW,300,11.0,13.0,53,0.00,,SKC,0.31,VWS V13.01,2013-03-30 19:03:00,
2013-03-30 14:08:00,69.8,49.8,29.94,NW,317,0.0,14.0,49,0.00,,SKC,0.31,VWS V13.01,2013-03-30 19:08:00,
2013-03-30 14:13:00,69.2,50.3,29.94,NNW,338,0.0,4.0,51,0.00,,SKC,0.31,VWS V13.01,2013-03-30 19:13:00,
2013-03-30 14:18:00,70.1,50.6,29.94,North,8,10.0,10.0,50,0.00,,SKC,0.31,VWS V13.01,2013-03-30 19:18:00,
2013-03-30 14:23:00,71.2,50.0,29.94,North,350,0.0,2.0,47,0.00,,SKC,0.31,VWS V13.01,2013-03-30 19:23:00,
2013-03-30 14:28:00,71.5,49.1,29.94,North,8,0.0,13.0,45,0.00,,SKC,0.31,VWS V13.01,2013-03-30 19:28:00,
2013-03-30 14:33:00,71.8,48.7,29.94,NW,320,4.0,15.0,44,0.00,,SKC,0.31,VWS V13.01,2013-03-30 19:33:00,
2013-03-30 14:38:00,70.9,48.5,29.94,WNW,292,1.0,1.0,45,0.00,,SKC,0.31,VWS V13.01,2013-03-30 19:38:00,
2013-03-30 14:43:00,70.8,47.2,29.94,NW,313,1.0,2.0,43,0.00,,SKC,0.31,VWS V13.01,2013-03-30 19:43:00,
2013-03-30 14:48:00,71.0,47.4,29.94,NE,45,11.0,11.0,43,0.00,,SKC,0.31,VWS V13.01,2013-03-30 19:48:00,
2013-03-30 14:53:00,70.6,45.8,29.94,North,349,0.0,5.0,41,0.00,,SKC,0.31,VWS V13.01,2013-03-30 19:53:00,
2013-03-30 14:58:00,70.3,44.2,29.94,NW,314,14.0,21.0,39,0.00,,SKC,0.31,VWS V13.01,2013-03-30 19:58:00,
2013-03-30 15:03:00,70.1,44.7,29.94,NNW,344,1.0,3.0,40,0.00,,SKC,0.31,VWS V13.01,2013-03-30 20:03:00,
2013-03-30 15:09:00,70.3,45.5,29.93,NNE,20,0.0,7.0,41,0.00,,SKC,0.31,VWS V13.01,2013-03-30 20:09:00,
2013-03-30 15:14:00,70.8,47.2,29.93,NNE,16,1.0,11.0,43,0.00,,SKC,0.31,VWS V13.01,2013-03-30 20:14:00,
2013-03-30 15:19:00,72.6,46.2,29.93,NNW,348,11.0,20.0,39,0.00,,SKC,0.31,VWS V13.01,2013-03-30 20:19:00,
2013-03-30 15:24:00,72.4,44.7,29.93,NW,326,1.0,13.0,37,0.00,,SKC,0.31,VWS V13.01,2013-03-30 20:24:00,
2013-03-30 15:29:00,72.0,44.3,29.94,NE,54,6.0,11.0,37,0.00,,SKC,0.31,VWS V13.01,2013-03-30 20:29:00,
2013-03-30 15:34:00,71.6,42.5,29.94,NNW,328,12.0,13.0,35,0.00,,SKC,0.31,VWS V13.01,2013-03-30 20:34:00,
2013-03-30 15:39:00,71.3,43.0,29.94,North,8,1.0,15.0,36,0.00,,SKC,0.31,VWS V13.01,2013-03-30 20:39:00,
2013-03-30 15:44:00,71.2,43.6,29.94,North,3,0.0,1.0,37,0.00,,SKC,0.31,VWS V13.01,2013-03-30 20:44:00,
2013-03-30 15:49:00,71.9,44.9,29.94,NNE,29,2.0,14.0,38,0.00,,SKC,0.31,VWS V13.01,2013-03-30 20:49:00,
2013-03-30 15:54:00,72.0,43.6,29.94,NW,315,2.0,3.0,36,0.00,,SKC,0.31,VWS V13.01,2013-03-30 20:54:00,
2013-03-30 15:59:00,71.9,43.5,29.93,North,8,4.0,13.0,36,0.00,,SKC,0.31,VWS V13.01,2013-03-30 20:59:00,
2013-03-30 16:04:00,71.0,42.7,29.93,NNE,23,10.0,16.0,36,0.00,,SKC,0.31,VWS V13.01,2013-03-30 21:04:00,
2013-03-30 16:09:00,70.9,41.9,29.93,North,8,8.0,13.0,35,0.00,,SKC,0.31,VWS V13.01,2013-03-30 21:09:00,
2013-03-30 16:14:00,70.2,37.3,29.94,NE,51,16.0,16.0,30,0.00,,SKC,0.31,VWS V13.01,2013-03-30 21:14:00,
2013-03-30 16:19:00,69.8,36.1,29.94,North,353,13.0,14.0,29,0.00,,SKC,0.31,VWS V13.01,2013-03-30 21:19:00,
2013-03-30 16:24:00,69.3,37.4,29.94,NNE,21,0.0,13.0,31,0.00,,SKC,0.31,VWS V13.01,2013-03-30 21:24:00,
2013-03-30 16:29:00,69.2,38.9,29.94,NNW,329,0.0,4.0,33,0.00,,SKC,0.31,VWS V13.01,2013-03-30 21:29:00,
2013-03-30 16:34:00,69.2,39.7,29.94,North,358,4.0,4.0,34,0.00,,SKC,0.31,VWS V13.01,2013-03-30 21:34:00,
2013-03-30 16:39:00,69.2,40.4,29.94,NW,314,1.0,2.0,35,0.00,,SKC,0.31,VWS V13.01,2013-03-30 21:39:00,
2013-03-30 16:44:00,69.7,40.1,29.94,NNE,30,0.0,11.0,34,0.00,,SKC,0.31,VWS V13.01,2013-03-30 21:44:00,
2013-03-30 16:49:00,69.6,40.8,29.93,NNE,16,2.0,13.0,35,0.00,,SKC,0.31,VWS V13.01,2013-03-30 21:49:00,
2013-03-30 16:54:00,70.2,39.8,29.93,ENE,62,1.0,14.0,33,0.00,,SKC,0.31,VWS V13.01,2013-03-30 21:54:00,
2013-03-30 16:59:00,69.4,39.8,29.93,NW,326,2.0,12.0,34,0.00,,SKC,0.31,VWS V13.01,2013-03-30 21:59:00,
2013-03-30 17:04:00,68.5,41.2,29.94,NNE,13,12.0,16.0,37,0.00,,SKC,0.31,VWS V13.01,2013-03-30 22:04:00,
2013-03-30 17:09:00,67.8,39.9,29.94,NNE,22,0.0,13.0,36,0.00,,SKC,0.31,VWS V13.01,2013-03-30 22:09:00,
2013-03-30 17:14:00,67.5,39.6,29.94,NE,54,0.0,12.0,36,0.00,,SKC,0.31,VWS V13.01,2013-03-30 22:14:00,
2013-03-30 17:19:00,66.9,38.4,29.94,NNE,22,1.0,11.0,35,0.00,,SKC,0.31,VWS V13.01,2013-03-30 22:19:00,
2013-03-30 17:24:00,67.3,38.0,29.94,NW,309,2.0,11.0,34,0.00,,SKC,0.31,VWS V13.01,2013-03-30 22:24:00,
2013-03-30 17:29:00,67.1,39.3,29.94,NNE,25,14.0,14.0,36,0.00,,SKC,0.31,VWS V13.01,2013-03-30 22:29:00,
2013-03-30 17:34:00,67.2,39.4,29.94,NNE,22,9.0,9.0,36,0.00,,SKC,0.31,VWS V13.01,2013-03-30 22:34:00,
2013-03-30 17:39:00,67.1,37.8,29.94,NW,326,1.0,14.0,34,0.00,,SKC,0.31,VWS V13.01,2013-03-30 22:39:00,
2013-03-30 17:44:00,67.2,39.4,29.94,NNE,20,1.0,3.0,36,0.00,,SKC,0.31,VWS V13.01,2013-03-30 22:44:00,
2013-03-30 17:49:00,67.3,38.7,29.94,NNE,14,10.0,13.0,35,0.00,,SKC,0.31,VWS V13.01,2013-03-30 22:49:00,
2013-03-30 17:54:00,67.0,39.2,29.94,NNW,348,1.0,12.0,36,0.00,,SKC,0.31,VWS V13.01,2013-03-30 22:54:00,
2013-03-30 17:59:00,66.8,39.7,29.94,NNE,13,0.0,2.0,37,0.00,,SKC,0.31,VWS V13.01,2013-03-30 22:59:00,
2013-03-30 18:04:00,66.8,39.7,29.94,NNE,29,4.0,4.0,37,0.00,,SKC,0.31,VWS V13.01,2013-03-30 23:04:00,
2013-03-30 18:09:00,66.5,39.5,29.94,NNE,12,1.0,10.0,37,0.00,,SKC,0.31,VWS V13.01,2013-03-30 23:09:00,
2013-03-30 18:14:00,66.5,40.8,29.94,NNE,18,2.0,2.0,39,0.00,,SKC,0.31,VWS V13.01,2013-03-30 23:14:00,
2013-03-30 18:19:00,66.1,40.5,29.94,NNE,17,1.0,1.0,39,0.00,,SKC,0.31,VWS V13.01,2013-03-30 23:19:00,
2013-03-30 18:24:00,65.3,40.4,29.94,NE,42,2.0,2.0,40,0.00,,SKC,0.31,VWS V13.01,2013-03-30 23:24:00,
2013-03-30 18:29:00,64.7,40.5,29.94,NNE,18,0.0,1.0,41,0.00,,SKC,0.31,VWS V13.01,2013-03-30 23:29:00,
2013-03-30 18:34:00,64.4,40.2,29.94,NNE,16,1.0,3.0,41,0.00,,SKC,0.31,VWS V13.01,2013-03-30 23:34:00,
2013-03-30 18:39:00,64.1,40.6,29.94,NNE,23,2.0,3.0,42,0.00,,SKC,0.31,VWS V13.01,2013-03-30 23:39:00,
2013-03-30 18:44:00,63.8,40.9,29.94,North,353,0.0,1.0,43,0.00,,SKC,0.31,VWS V13.01,2013-03-30 23:44:00,
2013-03-30 18:49:00,63.6,41.3,29.94,NNE,14,0.0,1.0,44,0.00,,SKC,0.31,VWS V13.01,2013-03-30 23:49:00,
2013-03-30 18:54:00,63.5,41.2,29.94,NNE,29,1.0,1.0,44,0.00,,SKC,0.31,VWS V13.01,2013-03-30 23:54:00,
2013-03-30 18:59:00,63.2,41.0,29.94,NNE,23,0.0,1.0,44,0.00,,SKC,0.31,VWS V13.01,2013-03-30 23:59:00,
2013-03-30 19:04:00,63.1,40.3,29.94,NE,35,2.0,2.0,43,0.00,,SKC,0.31,VWS V13.01,2013-03-31 00:04:00,
2013-03-30 19:09:00,62.9,40.7,29.94,NNE,26,0.0,1.0,44,0.00,,SKC,0.31,VWS V13.01,2013-03-31 00:09:00,
2013-03-30 19:14:00,62.9,40.1,29.94,NNE,16,0.0,1.0,43,0.00,,SKC,0.31,VWS V13.01,2013-03-31 00:14:00,
2013-03-30 19:19:00,62.9,40.1,29.94,NE,48,1.0,1.0,43,0.00,,SKC,0.31,VWS V13.01,2013-03-31 00:19:00,
2013-03-30 19:24:00,62.7,39.9,29.94,NNE,24,0.0,1.0,43,0.00,,SKC,0.31,VWS V13.01,2013-03-31 00:24:00,
2013-03-30 19:29:00,62.4,39.6,29.94,North,8,0.0,0.0,43,0.00,,SKC,0.31,VWS V13.01,2013-03-31 00:29:00,
2013-03-30 19:34:00,62.3,40.1,29.94,North,8,0.0,0.0,44,0.00,,SKC,0.31,VWS V13.01,2013-03-31 00:34:00,
2013-03-30 19:39:00,62.1,40.0,29.94,North,8,0.0,0.0,44,0.00,,SKC,0.31,VWS V13.01,2013-03-31 00:39:00,
2013-03-30 19:44:00,61.9,39.8,29.94,North,8,0.0,0.0,44,0.00,,SKC,0.31,VWS V13.01,2013-03-31 00:44:00,
2013-03-30 19:49:00,61.7,40.2,29.94,North,8,0.0,0.0,45,0.00,,SKC,0.31,VWS V13.01,2013-03-31 00:49:00,
2013-03-30 19:54:00,61.4,39.9,29.95,North,8,0.0,0.0,45,0.00,,SKC,0.31,VWS V13.01,2013-03-31 00:54:00,
2013-03-30 19:59:00,61.1,40.2,29.95,North,8,0.0,0.0,46,0.00,,SKC,0.31,VWS V13.01,2013-03-31 00:59:00,
2013-03-30 20:04:00,60.9,40.5,29.95,North,8,0.0,0.0,47,0.00,,SKC,0.31,VWS V13.01,2013-03-31 01:04:00,
2013-03-30 20:09:00,60.6,40.3,29.95,North,8,0.0,0.0,47,0.00,,SKC,0.31,VWS V13.01,2013-03-31 01:09:00,
2013-03-30 20:14:00,60.3,40.5,29.95,North,8,0.0,0.0,48,0.00,,SKC,0.31,VWS V13.01,2013-03-31 01:14:00,
2013-03-30 20:19:00,60.0,40.8,29.95,North,8,0.0,0.0,49,0.00,,SKC,0.31,VWS V13.01,2013-03-31 01:19:00,
2013-03-30 20:24:00,59.6,40.4,29.95,North,8,0.0,0.0,49,0.00,,SKC,0.31,VWS V13.01,2013-03-31 01:24:00,
2013-03-30 20:29:00,59.3,39.6,29.96,NNW,341,0.0,1.0,48,0.00,,SKC,0.31,VWS V13.01,2013-03-31 01:29:00,
2013-03-30 20:34:00,59.0,39.4,29.96,NNW,348,0.0,0.0,48,0.00,,SKC,0.31,VWS V13.01,2013-03-31 01:34:00,
2013-03-30 20:39:00,58.9,39.8,29.96,NNW,348,0.0,1.0,49,0.00,,SKC,0.31,VWS V13.01,2013-03-31 01:39:00,
2013-03-30 20:44:00,58.7,39.6,29.96,NNE,12,0.0,1.0,49,0.00,,SKC,0.31,VWS V13.01,2013-03-31 01:44:00,
2013-03-30 20:49:00,58.6,39.5,29.97,North,8,0.0,0.0,49,0.00,,SKC,0.31,VWS V13.01,2013-03-31 01:49:00,
2013-03-30 20:54:00,58.4,39.8,29.97,NNE,15,0.0,0.0,50,0.00,,SKC,0.31,VWS V13.01,2013-03-31 01:54:00,
2013-03-30 20:59:00,58.3,39.8,29.97,NNE,14,0.0,1.0,50,0.00,,SKC,0.31,VWS V13.01,2013-03-31 01:59:00,
2013-03-30 21:04:00,58.1,39.6,29.97,NNE,14,0.0,1.0,50,0.00,,SKC,0.31,VWS V13.01,2013-03-31 02:04:00,
2013-03-30 21:09:00,57.9,39.9,29.97,NNE,14,0.0,0.0,51,0.00,,SKC,0.31,VWS V13.01,2013-03-31 02:09:00,
2013-03-30 21:14:00,57.7,39.7,29.97,NNE,13,0.0,1.0,51,0.00,,SKC,0.31,VWS V13.01,2013-03-31 02:14:00,
2013-03-30 21:20:00,57.6,39.6,29.98,NNE,13,0.0,0.0,51,0.00,,SKC,0.31,VWS V13.01,2013-03-31 02:20:00,
2013-03-30 21:25:00,57.4,39.9,29.98,NNE,13,0.0,0.0,52,0.00,,SKC,0.31,VWS V13.01,2013-03-31 02:25:00,
2013-03-30 21:30:00,57.3,39.8,29.98,North,358,0.0,0.0,52,0.00,,SKC,0.31,VWS V13.01,2013-03-31 02:30:00,
2013-03-30 21:36:00,57.1,39.7,29.98,NNE,20,0.0,1.0,52,0.00,,SKC,0.31,VWS V13.01,2013-03-31 02:36:00,
2013-03-30 21:41:00,57.0,39.6,29.98,North,8,0.0,1.0,52,0.00,,SKC,0.31,VWS V13.01,2013-03-31 02:41:00,
2013-03-30 21:46:00,56.9,40.0,29.98,North,8,0.0,1.0,53,0.00,,SKC,0.31,VWS V13.01,2013-03-31 02:46:00,
2013-03-30 21:51:00,56.7,39.8,29.98,NNE,14,0.0,1.0,53,0.00,,SKC,0.31,VWS V13.01,2013-03-31 02:51:00,
2013-03-30 21:56:00,56.6,40.2,29.98,NNE,13,0.0,0.0,54,0.00,,SKC,0.31,VWS V13.01,2013-03-31 02:56:00,
2013-03-30 22:01:00,56.4,40.0,29.98,NNE,14,0.0,0.0,54,0.00,,SKC,0.31,VWS V13.01,2013-03-31 03:01:00,
2013-03-30 22:06:00,56.3,39.9,29.98,NNE,14,0.0,0.0,54,0.00,,SKC,0.31,VWS V13.01,2013-03-31 03:06:00,
2013-03-30 22:11:00,56.2,40.3,29.98,NNE,14,0.0,0.0,55,0.00,,SKC,0.31,VWS V13.01,2013-03-31 03:11:00,
2013-03-30 22:16:00,56.1,40.2,29.98,NNE,14,0.0,0.0,55,0.00,,SKC,0.31,VWS V13.01,2013-03-31 03:16:00,
2013-03-30 22:21:00,56.0,40.1,29.98,NNE,14,0.0,0.0,55,0.00,,SKC,0.31,VWS V13.01,2013-03-31 03:21:00,
2013-03-30 22:26:00,55.9,40.0,29.98,NNE,14,0.0,0.0,55,0.00,,SKC,0.31,VWS V13.01,2013-03-31 03:26:00,
2013-03-30 22:31:00,55.8,39.9,29.98,NNE,14,0.0,0.0,55,0.00,,SKC,0.31,VWS V13.01,2013-03-31 03:31:00,
2013-03-30 22:36:00,55.6,40.2,29.98,NNE,14,0.0,0.0,56,0.00,,SKC,0.31,VWS V13.01,2013-03-31 03:36:00,
2013-03-30 22:41:00,55.5,40.5,29.98,NNE,14,0.0,0.0,57,0.00,,SKC,0.31,VWS V13.01,2013-03-31 03:41:00,
2013-03-30 22:46:00,55.2,40.2,29.98,NNE,14,0.0,0.0,57,0.00,,SKC,0.31,VWS V13.01,2013-03-31 03:46:00,
2013-03-30 22:51:00,55.1,40.2,29.98,NNE,14,0.0,0.0,57,0.00,,SKC,0.31,VWS V13.01,2013-03-31 03:51:00,
2013-03-30 22:56:00,54.9,40.0,29.98,NNE,14,0.0,0.0,57,0.00,,SKC,0.31,VWS V13.01,2013-03-31 03:56:00,
2013-03-30 23:01:00,54.7,40.2,29.98,NNE,14,0.0,0.0,58,0.00,,SKC,0.31,VWS V13.01,2013-03-31 04:01:00,
2013-03-30 23:02:00,54.6,40.1,29.98,NNE,14,0.0,0.0,58,0.00,,SKC,0.31,VWS V13.01,2013-03-31 04:02:00,
2013-03-30 23:05:00,54.5,40.0,29.98,NNE,14,0.0,0.0,58,0.00,,SKC,0.31,VWS V13.01,2013-03-31 04:05:00,
2013-03-30 23:11:00,54.2,40.2,29.98,NNE,14,0.0,0.0,59,0.00,,SKC,0.31,VWS V13.01,2013-03-31 04:11:00,
2013-03-30 23:12:00,54.1,40.1,29.98,NNE,14,0.0,0.0,59,0.00,,SKC,0.31,VWS V13.01,2013-03-31 04:12:00,
2013-03-30 23:17:00,53.9,39.9,29.98,NNE,14,0.0,0.0,59,0.00,,SKC,0.31,VWS V13.01,2013-03-31 04:17:00,
2013-03-30 23:23:00,53.5,40.0,29.98,NNE,14,0.0,0.0,60,0.00,,SKC,0.31,VWS V13.01,2013-03-31 04:23:00,
2013-03-30 23:28:00,53.3,39.8,29.98,NNE,14,0.0,0.0,60,0.00,,SKC,0.31,VWS V13.01,2013-03-31 04:28:00,
2013-03-30 23:33:00,53.0,39.9,29.98,NNE,14,0.0,0.0,61,0.00,,SKC,0.31,VWS V13.01,2013-03-31 04:33:00,
2013-03-30 23:38:00,52.6,40.0,29.98,NNE,14,0.0,0.0,62,0.00,,SKC,0.31,VWS V13.01,2013-03-31 04:38:00,
2013-03-30 23:43:00,52.3,40.1,29.98,NNE,14,0.0,0.0,63,0.00,,SKC,0.31,VWS V13.01,2013-03-31 04:43:00,
2013-03-30 23:48:00,52.1,40.3,29.98,NNE,12,0.0,0.0,64,0.00,,SKC,0.31,VWS V13.01,2013-03-31 04:48:00,
2013-03-30 23:53:00,51.8,40.4,29.98,North,353,0.0,0.0,65,0.00,,SKC,0.31,VWS V13.01,2013-03-31 04:53:00,
2013-03-30 23:58:00,51.6,40.6,29.98,NW,316,0.0,0.0,66,0.00,,SKC,0.00,VWS V13.01,2013-03-31 04:58:00,